Terminal Aerodrome Forecast
Issued by NWS Wilmington, OH

Current Version | Previous Version | Text Only | Print | Product List | Glossary Off
Versions: 1 2 3 4 5 6 7 8 9 10 11 12 13 14

000
FTUS41 KILN 180543
TAFCMH
TAF
KCMH 180543Z 1806/1906 VRB03KT P6SM FEW250
     FM181200 16006KT P6SM BKN080
     FM182200 14008KT P6SM VCSH BKN035
     FM190000 16008KT P6SM -SHRA OVC018
     FM190200 23010G20KT P6SM -SHRA OVC018
     FM190400 26013G23KT P6SM BKN018=

USA.gov is the U.S. government's official web portal to all federal, state and local government web resources and services.